createdAt,value
2023-03-11T00:00:18.681Z,7.59
2023-03-11T00:02:47.963Z,7.57
2023-03-11T00:05:20.717Z,7.47
2023-03-11T00:07:47.667Z,7.43
2023-03-11T00:10:20.271Z,7.48
2023-03-11T00:12:47.009Z,7.39
2023-03-11T00:15:14.309Z,7.47
2023-03-11T00:17:41.445Z,7.49
2023-03-11T00:20:09.077Z,7.53
2023-03-11T00:22:35.757Z,7.55
2023-03-11T00:25:02.496Z,7.47
2023-03-11T00:27:29.225Z,7.35
2023-03-11T00:29:55.969Z,7.26
2023-03-11T00:32:22.700Z,7.18
2023-03-11T00:34:49.524Z,7.10
2023-03-11T00:37:16.210Z,7.05
2023-03-11T00:39:42.921Z,7.07
2023-03-11T00:42:11.333Z,7.07
2023-03-11T00:44:39.221Z,6.98
2023-03-11T00:47:05.987Z,7.03
2023-03-11T00:49:32.892Z,7.05
2023-03-11T00:51:59.649Z,7.14
2023-03-11T00:54:26.436Z,7.18
2023-03-11T00:56:53.254Z,7.15
2023-03-11T00:59:20.031Z,7.11
2023-03-11T01:01:47.028Z,7.06
2023-03-11T01:04:13.901Z,6.98
2023-03-11T01:06:45.527Z,6.94
2023-03-11T01:09:12.950Z,6.87
2023-03-11T01:11:39.691Z,6.83
2023-03-11T01:14:08.234Z,6.79
2023-03-11T01:16:35.123Z,6.77
2023-03-11T01:19:01.937Z,6.75
2023-03-11T01:21:28.729Z,6.74
2023-03-11T01:23:55.482Z,6.75
2023-03-11T01:26:22.218Z,6.74
2023-03-11T01:28:48.954Z,6.70
2023-03-11T01:31:15.725Z,6.69
2023-03-11T01:33:42.464Z,6.68
2023-03-11T01:36:09.469Z,6.68
2023-03-11T01:38:36.271Z,6.66
2023-03-11T01:41:03.295Z,6.50
2023-03-11T01:43:45.204Z,6.45
2023-03-11T01:46:31.163Z,6.44
2023-03-11T01:49:02.193Z,6.41
2023-03-11T01:51:49.896Z,6.45
2023-03-11T01:54:20.705Z,6.40
2023-03-11T01:56:48.670Z,6.48
2023-03-11T01:59:21.299Z,6.40
2023-03-11T02:02:25.756Z,6.47
2023-03-11T02:04:54.762Z,6.26
2023-03-11T02:07:24.122Z,6.12
2023-03-11T02:09:52.141Z,6.05
2023-03-11T02:12:19.492Z,6.07
2023-03-11T02:14:50.606Z,6.15
2023-03-11T02:17:17.890Z,6.15
2023-03-11T02:19:56.716Z,6.26
2023-03-11T02:22:24.903Z,6.18
2023-03-11T02:25:02.308Z,6.24
2023-03-11T02:27:33.425Z,6.18
2023-03-11T02:30:03.418Z,6.22
2023-03-11T02:32:33.554Z,6.18
2023-03-11T02:35:00.215Z,6.24
2023-03-11T02:37:26.923Z,6.20
2023-03-11T02:40:37.971Z,6.31
2023-03-11T02:43:11.719Z,6.28
2023-03-11T02:45:41.251Z,6.22
2023-03-11T02:48:11.779Z,6.18
2023-03-11T02:50:40.067Z,6.16
2023-03-11T02:53:07.731Z,6.19
2023-03-11T02:55:34.431Z,6.13
2023-03-11T02:58:01.166Z,6.21
2023-03-11T03:00:28.252Z,6.10
2023-03-11T03:03:02.932Z,6.07
2023-03-11T03:05:29.731Z,6.10
2023-03-11T03:07:58.301Z,6.18
2023-03-11T03:10:25.102Z,6.21
2023-03-11T03:12:52.029Z,6.24
2023-03-11T03:15:18.808Z,6.22
2023-03-11T03:17:46.562Z,6.11
2023-03-11T03:20:14.144Z,5.97
2023-03-11T03:22:45.949Z,5.89
2023-03-11T03:25:15.605Z,5.88
2023-03-11T03:27:42.656Z,5.99
2023-03-11T03:30:10.823Z,6.07
2023-03-11T03:32:38.690Z,6.03
2023-03-11T03:35:09.925Z,6.09
2023-03-11T03:37:55.118Z,6.01
2023-03-11T03:40:22.976Z,6.04
2023-03-11T03:42:50.830Z,6.10
2023-03-11T03:45:17.850Z,6.05
2023-03-11T03:47:45.201Z,6.07
2023-03-11T03:50:12.465Z,6.05
2023-03-11T03:52:42.482Z,6.04
2023-03-11T03:55:09.684Z,5.95
2023-03-11T03:57:37.282Z,5.96
2023-03-11T04:00:04.842Z,5.79
2023-03-11T04:02:40.663Z,5.62
2023-03-11T04:05:13.513Z,5.48
2023-03-11T04:07:41.814Z,5.45
2023-03-11T04:10:09.779Z,5.41
2023-03-11T04:12:37.458Z,5.53
2023-03-11T04:15:04.992Z,5.56
2023-03-11T04:17:31.901Z,5.47
2023-03-11T04:19:58.793Z,5.38
2023-03-11T04:22:25.914Z,5.28
2023-03-11T04:24:52.715Z,5.21
2023-03-11T04:27:19.783Z,4.94
2023-03-11T04:29:47.043Z,4.91
2023-03-11T04:32:13.953Z,4.71
2023-03-11T04:34:42.522Z,4.66
2023-03-11T04:37:10.234Z,4.69
2023-03-11T04:39:37.224Z,4.71
2023-03-11T04:42:04.233Z,4.66
2023-03-11T04:44:35.231Z,4.70
2023-03-11T04:47:02.786Z,4.75
2023-03-11T04:49:29.633Z,4.84
2023-03-11T04:51:56.389Z,4.81
2023-03-11T04:54:23.901Z,4.70
2023-03-11T04:56:51.051Z,4.41
2023-03-11T04:59:17.891Z,4.35
2023-03-11T05:01:46.128Z,4.07
2023-03-11T05:04:13.038Z,4.34
2023-03-11T05:06:40.793Z,4.12
2023-03-11T05:09:08.542Z,4.05
2023-03-11T05:11:37.983Z,4.07
2023-03-11T05:14:04.790Z,4.22
2023-03-11T05:16:31.518Z,4.19
2023-03-11T05:18:58.383Z,4.34
2023-03-11T05:21:25.448Z,4.40
2023-03-11T05:23:52.961Z,4.38
2023-03-11T05:26:19.758Z,4.46
2023-03-11T05:28:47.338Z,4.43
2023-03-11T05:31:14.260Z,4.32
2023-03-11T05:33:42.593Z,4.19
2023-03-11T05:36:12.357Z,4.04
2023-03-11T05:38:42.199Z,4.07
2023-03-11T05:41:09.546Z,4.10
2023-03-11T05:43:36.911Z,4.16
2023-03-11T05:46:03.897Z,4.06
2023-03-11T05:48:31.541Z,4.19
2023-03-11T05:50:59.420Z,4.28
2023-03-11T05:53:26.561Z,4.27
2023-03-11T05:55:58.192Z,4.34
2023-03-11T05:58:27.968Z,4.38
2023-03-11T06:00:55.096Z,4.59
2023-03-11T06:03:22.185Z,4.67
2023-03-11T06:05:49.856Z,4.62
2023-03-11T06:08:17.778Z,4.65
2023-03-11T06:10:47.258Z,4.59
2023-03-11T06:13:15.980Z,4.53
2023-03-11T06:15:48.364Z,4.55
2023-03-11T06:18:15.632Z,4.51
2023-03-11T06:20:42.387Z,4.59
2023-03-11T06:23:09.106Z,4.54
2023-03-11T06:25:35.861Z,4.70
2023-03-11T06:28:03.246Z,4.81
2023-03-11T06:30:30.620Z,4.96
2023-03-11T06:33:14.504Z,4.90
2023-03-11T06:35:41.939Z,5.04
2023-03-11T06:38:09.276Z,5.29
2023-03-11T06:40:38.299Z,5.52
2023-03-11T06:43:05.171Z,5.70
2023-03-11T06:45:34.887Z,5.81
2023-03-11T06:48:01.760Z,5.94
2023-03-11T06:50:29.251Z,6.01
2023-03-11T06:52:59.773Z,5.89
2023-03-11T06:55:27.581Z,5.94
2023-03-11T06:57:54.335Z,6.01
2023-03-11T07:00:21.306Z,5.83
2023-03-11T07:02:53.645Z,5.84
2023-03-11T07:05:21.138Z,6.00
2023-03-11T07:07:49.891Z,6.09
2023-03-11T07:10:16.996Z,6.15
2023-03-11T07:12:43.910Z,6.13
2023-03-11T07:15:11.297Z,6.01
2023-03-11T07:17:38.418Z,6.01
2023-03-11T07:20:05.694Z,5.96
2023-03-11T07:22:32.390Z,6.01
2023-03-11T07:24:59.479Z,6.06
2023-03-11T07:27:27.884Z,6.11
2023-03-11T07:29:54.652Z,6.07
2023-03-11T07:32:21.357Z,6.04
2023-03-11T07:34:48.177Z,6.05
2023-03-11T07:37:15.563Z,6.17
2023-03-11T07:39:42.893Z,6.17
2023-03-11T07:42:09.835Z,6.19
2023-03-11T07:44:38.112Z,6.20
2023-03-11T07:47:06.530Z,6.10
2023-03-11T07:49:35.612Z,6.26
2023-03-11T07:52:02.628Z,6.29
2023-03-11T07:54:29.505Z,6.31
2023-03-11T07:56:56.328Z,6.32
2023-03-11T07:59:23.049Z,6.37
2023-03-11T08:01:50.674Z,6.45
2023-03-11T08:04:17.791Z,6.61
2023-03-11T08:06:48.126Z,6.74
2023-03-11T08:09:15.229Z,6.96
2023-03-11T08:11:42.005Z,6.93
2023-03-11T08:14:09.010Z,6.96
2023-03-11T08:16:35.840Z,6.99
2023-03-11T08:19:03.096Z,7.05
2023-03-11T08:21:32.273Z,7.07
2023-03-11T08:24:01.683Z,7.18
2023-03-11T08:26:29.023Z,7.22
2023-03-11T08:28:56.773Z,7.25
2023-03-11T08:31:28.198Z,7.29
2023-03-11T08:33:58.251Z,7.25
2023-03-11T08:36:25.216Z,7.21
2023-03-11T08:38:52.635Z,7.28
2023-03-11T08:41:19.860Z,7.32
2023-03-11T08:43:46.415Z,7.39
2023-03-11T08:46:25.395Z,7.40
2023-03-11T08:48:52.789Z,7.46
2023-03-11T08:51:20.047Z,7.56
2023-03-11T08:53:47.661Z,7.64
2023-03-11T08:56:14.364Z,7.81
2023-03-11T08:58:41.050Z,7.81
2023-03-11T09:01:09.260Z,7.98
2023-03-11T09:03:36.389Z,7.99
2023-03-11T09:06:06.316Z,8.09
2023-03-11T09:08:33.181Z,8.19
2023-03-11T09:10:59.975Z,8.29
2023-03-11T09:13:27.541Z,8.47
2023-03-11T09:15:54.603Z,8.45
2023-03-11T09:18:21.447Z,8.47
2023-03-11T09:20:48.478Z,8.46
2023-03-11T09:23:17.241Z,8.49
2023-03-11T09:25:44.899Z,8.70
2023-03-11T09:28:11.699Z,8.61
2023-03-11T09:30:38.572Z,8.64
2023-03-11T09:33:06.327Z,8.75
2023-03-11T09:35:33.436Z,8.83
2023-03-11T09:38:00.478Z,8.84
2023-03-11T09:40:33.042Z,8.82
2023-03-11T09:43:02.754Z,9.01
2023-03-11T09:45:32.046Z,8.78
2023-03-11T09:48:12.884Z,8.52
2023-03-11T09:50:53.774Z,8.28
2023-03-11T09:53:29.195Z,8.11
2023-03-11T09:56:00.127Z,8.29
2023-03-11T09:58:45.798Z,8.54
2023-03-11T10:01:24.093Z,9.42
2023-03-11T10:03:55.079Z,9.71
2023-03-11T10:06:28.742Z,9.38
2023-03-11T10:09:07.967Z,9.36
2023-03-11T10:12:09.701Z,9.51
2023-03-11T10:14:43.002Z,9.36
2023-03-11T10:17:12.630Z,9.67
2023-03-11T10:20:02.656Z,9.61
2023-03-11T10:22:43.532Z,9.01
2023-03-11T10:25:34.729Z,8.88
2023-03-11T10:28:01.395Z,8.81
2023-03-11T10:30:33.854Z,8.77
2023-03-11T10:33:17.615Z,9.29
2023-03-11T10:35:48.192Z,9.72
2023-03-11T10:38:21.610Z,9.95
2023-03-11T10:40:52.043Z,9.88
2023-03-11T10:43:51.721Z,10.43
2023-03-11T10:46:25.714Z,10.82
2023-03-11T10:48:52.612Z,11.40
2023-03-11T10:51:25.107Z,11.86
2023-03-11T10:53:57.921Z,11.72
2023-03-11T10:56:27.489Z,12.19
2023-03-11T10:58:55.064Z,11.85
2023-03-11T11:01:22.587Z,11.82
2023-03-11T11:03:51.398Z,11.36
2023-03-11T11:06:25.489Z,11.54
2023-03-11T11:09:19.346Z,12.29
2023-03-11T11:12:05.343Z,11.75
2023-03-11T11:14:50.149Z,11.43
2023-03-11T11:17:33.067Z,11.17
2023-03-11T11:20:12.202Z,11.43
2023-03-11T11:22:47.637Z,11.81
2023-03-11T11:25:35.958Z,12.24
2023-03-11T11:28:16.235Z,12.73
2023-03-11T11:30:57.123Z,12.39
2023-03-11T11:33:39.326Z,11.82
2023-03-11T11:36:14.725Z,12.19
2023-03-11T11:38:41.929Z,12.80
2023-03-11T11:41:20.198Z,13.34
2023-03-11T11:43:49.893Z,13.42
2023-03-11T11:46:19.966Z,13.37
2023-03-11T11:48:52.089Z,13.13
2023-03-11T11:51:24.570Z,12.99
2023-03-11T11:53:57.698Z,12.98
2023-03-11T11:56:25.830Z,13.37
2023-03-11T11:58:54.735Z,12.36
2023-03-11T12:01:44.891Z,11.96
2023-03-11T12:04:23.851Z,12.70
2023-03-11T12:06:55.315Z,13.60
2023-03-11T12:09:46.117Z,13.99
2023-03-11T12:12:31.670Z,13.96
2023-03-11T12:15:03.957Z,13.64
2023-03-11T12:17:33.805Z,13.52
2023-03-11T12:20:03.185Z,13.85
2023-03-11T12:22:42.166Z,13.83
2023-03-11T12:25:09.190Z,14.25
2023-03-11T12:27:45.474Z,14.34
2023-03-11T12:30:30.288Z,13.36
2023-03-11T12:33:05.445Z,12.80
2023-03-11T12:35:35.484Z,13.41
2023-03-11T12:38:25.434Z,13.78
2023-03-11T12:40:59.504Z,13.71
2023-03-11T12:43:30.575Z,13.35
2023-03-11T12:46:01.317Z,13.23
2023-03-11T12:48:27.988Z,13.64
2023-03-11T12:50:55.376Z,13.66
2023-03-11T12:53:42.909Z,13.31
2023-03-11T12:56:24.895Z,13.94
2023-03-11T12:59:12.315Z,13.75
2023-03-11T13:01:55.158Z,13.53
2023-03-11T13:04:41.460Z,12.83
2023-03-11T13:08:01.335Z,12.78
2023-03-11T13:10:46.215Z,12.81
2023-03-11T13:13:26.330Z,12.70
2023-03-11T13:15:55.061Z,13.20
2023-03-11T13:18:27.084Z,12.48
2023-03-11T13:21:04.879Z,12.29
2023-03-11T13:23:40.478Z,12.14
2023-03-11T13:26:09.961Z,13.23
2023-03-11T13:29:03.954Z,13.87
2023-03-11T13:31:33.417Z,12.82
2023-03-11T13:34:37.113Z,12.40
2023-03-11T13:37:04.660Z,12.84
2023-03-11T13:40:14.017Z,13.25
2023-03-11T13:42:50.029Z,13.29
2023-03-11T13:45:27.470Z,13.35
2023-03-11T13:47:58.850Z,12.68
2023-03-11T13:50:34.660Z,12.90
2023-03-11T13:53:06.971Z,13.02
2023-03-11T13:55:45.208Z,12.51
2023-03-11T13:58:27.179Z,13.05
2023-03-11T14:00:57.047Z,13.03
2023-03-11T14:03:25.820Z,12.89
2023-03-11T14:06:03.017Z,12.69
2023-03-11T14:08:35.261Z,12.80
2023-03-11T14:11:10.371Z,13.35
2023-03-11T14:13:49.960Z,13.35
2023-03-11T14:16:30.483Z,13.75
2023-03-11T14:19:15.581Z,13.66
2023-03-11T14:21:46.934Z,14.31
2023-03-11T14:24:19.466Z,14.23
2023-03-11T14:26:48.718Z,14.59
2023-03-11T14:29:20.863Z,13.82
2023-03-11T14:31:47.850Z,13.47
2023-03-11T14:34:19.922Z,13.27
2023-03-11T14:36:54.002Z,13.37
2023-03-11T14:39:29.687Z,13.67
2023-03-11T14:42:29.444Z,13.90
2023-03-11T14:45:05.267Z,13.94
2023-03-11T14:47:32.004Z,14.07
2023-03-11T14:49:59.627Z,13.98
2023-03-11T14:52:35.514Z,13.69
2023-03-11T14:55:04.558Z,13.27
2023-03-11T14:57:45.900Z,13.54
2023-03-11T15:00:21.588Z,13.91
2023-03-11T15:02:58.886Z,13.99
2023-03-11T15:05:47.651Z,14.27
2023-03-11T15:08:18.872Z,14.56
2023-03-11T15:11:07.880Z,14.57
2023-03-11T15:13:36.306Z,14.21
2023-03-11T15:16:06.569Z,14.10
2023-03-11T15:18:39.100Z,13.81
2023-03-11T15:21:07.549Z,14.07
2023-03-11T15:23:36.239Z,14.17
2023-03-11T15:26:04.260Z,13.58
2023-03-11T15:28:32.665Z,12.52
2023-03-11T15:31:22.242Z,12.71
2023-03-11T15:33:51.666Z,12.41
2023-03-11T15:36:32.157Z,12.24
2023-03-11T15:39:32.642Z,12.08
2023-03-11T15:42:02.154Z,12.07
2023-03-11T15:44:53.785Z,11.79
2023-03-11T15:47:22.813Z,11.73
2023-03-11T15:49:51.085Z,11.77
2023-03-11T15:52:19.862Z,11.95
2023-03-11T15:54:54.979Z,11.64
2023-03-11T15:57:27.735Z,11.91
2023-03-11T15:59:56.303Z,11.93
2023-03-11T16:02:29.169Z,11.68
2023-03-11T16:04:57.645Z,11.59
2023-03-11T16:07:38.704Z,11.35
2023-03-11T16:10:10.585Z,11.13
2023-03-11T16:12:37.970Z,11.08
2023-03-11T16:15:06.069Z,10.70
2023-03-11T16:17:48.548Z,10.50
2023-03-11T16:20:16.160Z,10.09
2023-03-11T16:22:42.972Z,10.02
2023-03-11T16:25:20.393Z,10.49
2023-03-11T16:27:48.219Z,10.60
2023-03-11T16:30:16.432Z,10.43
2023-03-11T16:32:43.906Z,10.13
2023-03-11T16:35:11.925Z,9.51
2023-03-11T16:37:39.884Z,8.79
2023-03-11T16:40:07.274Z,8.66
2023-03-11T16:42:33.976Z,8.51
2023-03-11T16:45:03.470Z,8.45
2023-03-11T16:47:30.844Z,8.21
2023-03-11T16:50:02.184Z,8.19
2023-03-11T16:52:38.503Z,8.10
2023-03-11T16:55:11.661Z,8.04
2023-03-11T16:57:39.630Z,7.99
2023-03-11T17:00:10.189Z,7.92
2023-03-11T17:02:37.590Z,7.84
2023-03-11T17:05:06.206Z,7.74
2023-03-11T17:07:33.588Z,7.62
2023-03-11T17:10:00.916Z,7.48
2023-03-11T17:12:27.874Z,7.49
2023-03-11T17:14:55.051Z,7.41
2023-03-11T17:17:21.961Z,7.35
2023-03-11T17:19:49.097Z,7.26
2023-03-11T17:22:17.375Z,7.16
2023-03-11T17:24:44.974Z,7.02
2023-03-11T17:27:12.169Z,7.08
2023-03-11T17:29:39.068Z,7.02
2023-03-11T17:32:07.440Z,6.92
2023-03-11T17:34:35.395Z,6.87
2023-03-11T17:37:03.437Z,6.81
2023-03-11T17:39:30.141Z,6.75
2023-03-11T17:41:56.938Z,6.71
2023-03-11T17:44:23.714Z,6.61
2023-03-11T17:46:50.626Z,6.58
2023-03-11T17:49:17.423Z,6.44
2023-03-11T17:51:44.143Z,6.51
2023-03-11T17:54:11.134Z,6.55
2023-03-11T17:56:37.915Z,6.55
2023-03-11T17:59:04.627Z,6.54
2023-03-11T18:01:31.600Z,6.50
2023-03-11T18:03:58.419Z,6.44
2023-03-11T18:06:25.411Z,6.39
2023-03-11T18:08:53.004Z,6.32
2023-03-11T18:11:22.625Z,6.24
2023-03-11T18:13:50.123Z,6.18
2023-03-11T18:16:24.908Z,6.12
2023-03-11T18:18:52.361Z,6.03
2023-03-11T18:21:20.481Z,5.96
2023-03-11T18:23:47.947Z,5.91
2023-03-11T18:26:17.442Z,5.83
2023-03-11T18:28:44.193Z,5.72
2023-03-11T18:31:18.319Z,5.63
2023-03-11T18:33:54.594Z,5.55
2023-03-11T18:36:27.213Z,5.47
2023-03-11T18:38:55.541Z,5.41
2023-03-11T18:41:22.913Z,5.32
2023-03-11T18:43:54.354Z,5.28
2023-03-11T18:46:21.299Z,5.23
2023-03-11T18:48:48.074Z,5.16
2023-03-11T18:51:15.368Z,5.13
2023-03-11T18:53:42.992Z,5.09
2023-03-11T18:56:13.581Z,5.05
2023-03-11T18:58:40.332Z,4.97
2023-03-11T19:01:20.792Z,4.96
2023-03-11T19:03:56.336Z,4.94
2023-03-11T19:06:24.738Z,4.84
2023-03-11T19:08:52.440Z,4.88
2023-03-11T19:11:21.468Z,4.80
2023-03-11T19:13:48.686Z,4.87
2023-03-11T19:16:18.927Z,4.85
2023-03-11T19:18:46.027Z,4.80
2023-03-11T19:21:14.830Z,4.75
2023-03-11T19:23:41.879Z,4.49
2023-03-11T19:26:08.927Z,4.58
2023-03-11T19:28:35.981Z,4.53
2023-03-11T19:31:03.921Z,4.53
2023-03-11T19:33:30.829Z,4.51
2023-03-11T19:36:00.342Z,4.53
2023-03-11T19:38:27.657Z,4.44
2023-03-11T19:40:54.847Z,4.41
2023-03-11T19:43:21.593Z,4.34
2023-03-11T19:45:50.525Z,4.27
2023-03-11T19:48:17.793Z,4.07
2023-03-11T19:50:44.603Z,4.14
2023-03-11T19:53:11.443Z,4.14
2023-03-11T19:55:43.210Z,4.19
2023-03-11T19:58:10.363Z,4.21
2023-03-11T20:00:37.086Z,4.20
2023-03-11T20:03:03.833Z,4.19
2023-03-11T20:05:30.930Z,4.17
2023-03-11T20:07:58.041Z,4.13
2023-03-11T20:10:25.201Z,4.13
2023-03-11T20:13:01.689Z,4.12
2023-03-11T20:15:30.156Z,4.08
2023-03-11T20:17:57.095Z,3.94
2023-03-11T20:20:23.864Z,4.02
2023-03-11T20:22:50.588Z,3.98
2023-03-11T20:25:17.464Z,3.96
2023-03-11T20:27:44.265Z,3.90
2023-03-11T20:30:11.834Z,3.87
2023-03-11T20:32:38.751Z,3.80
2023-03-11T20:35:07.587Z,3.74
2023-03-11T20:37:34.584Z,3.47
2023-03-11T20:40:01.371Z,3.62
2023-03-11T20:42:28.085Z,3.62
2023-03-11T20:44:56.321Z,3.45
2023-03-11T20:47:23.106Z,3.50
2023-03-11T20:49:49.889Z,3.49
2023-03-11T20:52:18.205Z,3.41
2023-03-11T20:54:45.202Z,3.42
2023-03-11T20:57:13.302Z,3.36
2023-03-11T20:59:43.062Z,3.27
2023-03-11T21:02:12.347Z,3.15
2023-03-11T21:04:41.489Z,3.20
2023-03-11T21:07:08.654Z,3.18
2023-03-11T21:09:36.198Z,3.11
2023-03-11T21:12:04.261Z,3.00
2023-03-11T21:14:31.818Z,3.01
2023-03-11T21:17:01.025Z,2.98
2023-03-11T21:19:28.628Z,3.12
2023-03-11T21:21:55.857Z,3.11
2023-03-11T21:24:23.633Z,3.09
2023-03-11T21:26:50.784Z,3.02
2023-03-11T21:29:17.806Z,3.11
2023-03-11T21:31:44.947Z,3.09
2023-03-11T21:34:12.065Z,3.10
2023-03-11T21:36:38.940Z,2.96
2023-03-11T21:39:06.491Z,3.07
2023-03-11T21:41:33.705Z,3.04
2023-03-11T21:44:01.154Z,2.98
2023-03-11T21:46:31.268Z,2.96
2023-03-11T21:48:59.970Z,2.93
2023-03-11T21:51:28.178Z,2.91
2023-03-11T21:53:56.393Z,2.92
2023-03-11T21:56:23.439Z,2.89
2023-03-11T21:58:50.263Z,2.91
2023-03-11T22:01:17.091Z,2.87
2023-03-11T22:03:44.231Z,2.91
2023-03-11T22:06:12.685Z,2.88
2023-03-11T22:08:40.319Z,2.74
2023-03-11T22:11:09.951Z,2.86
2023-03-11T22:13:36.941Z,2.84
2023-03-11T22:16:06.707Z,2.83
2023-03-11T22:18:33.625Z,2.81
2023-03-11T22:21:00.958Z,2.78
2023-03-11T22:23:27.658Z,2.78
2023-03-11T22:25:54.368Z,2.72
2023-03-11T22:28:21.266Z,2.69
2023-03-11T22:30:48.156Z,2.65
2023-03-11T22:33:15.220Z,2.67
2023-03-11T22:35:49.380Z,2.70
2023-03-11T22:38:16.215Z,2.71
2023-03-11T22:40:42.934Z,2.67
2023-03-11T22:43:09.762Z,2.70
2023-03-11T22:45:36.514Z,2.61
2023-03-11T22:48:03.839Z,2.69
2023-03-11T22:50:30.704Z,2.66
2023-03-11T22:52:57.531Z,2.62
2023-03-11T22:55:24.396Z,2.60
2023-03-11T22:57:51.204Z,2.58
2023-03-11T23:00:21.748Z,2.48
2023-03-11T23:02:53.376Z,2.47
2023-03-11T23:05:20.889Z,2.42
2023-03-11T23:07:47.992Z,2.49
2023-03-11T23:10:15.653Z,2.50
2023-03-11T23:12:42.629Z,2.43
2023-03-11T23:15:12.577Z,2.40
2023-03-11T23:17:39.508Z,2.41
2023-03-11T23:20:10.416Z,2.38
2023-03-11T23:22:38.988Z,2.34
2023-03-11T23:25:08.460Z,2.33
2023-03-11T23:27:35.245Z,2.27
2023-03-11T23:30:02.158Z,2.16
2023-03-11T23:32:29.681Z,2.17
2023-03-11T23:34:56.404Z,2.20
2023-03-11T23:37:23.790Z,2.19
2023-03-11T23:39:50.564Z,2.16
2023-03-11T23:42:25.335Z,2.15
2023-03-11T23:44:52.581Z,2.15
2023-03-11T23:47:19.432Z,2.12
2023-03-11T23:49:46.190Z,2.11
2023-03-11T23:52:12.862Z,2.11
2023-03-11T23:54:39.543Z,2.06
2023-03-11T23:57:06.349Z,2.10
2023-03-11T23:59:33.060Z,2.12
